createdAt,value
2022-07-25T00:00:24.697Z,1017.0
2022-07-25T00:15:24.341Z,1017.0
2022-07-25T00:30:24.480Z,1017.0
2022-07-25T00:45:24.410Z,1018.0
2022-07-25T01:00:33.286Z,1017.5
2022-07-25T01:15:23.342Z,1017.0
2022-07-25T01:30:23.357Z,1017.0
2022-07-25T01:45:23.483Z,1017.0
2022-07-25T02:00:23.554Z,1017.0
2022-07-25T02:15:23.581Z,1017.0
2022-07-25T02:30:23.738Z,1017.0
2022-07-25T02:45:23.543Z,1017.0
2022-07-25T03:00:23.558Z,1017.0
2022-07-25T03:15:23.564Z,1017.0
2022-07-25T03:30:23.543Z,1017.0
2022-07-25T03:45:23.689Z,1017.0
2022-07-25T04:00:23.805Z,1016.7
2022-07-25T04:15:24.189Z,1016.0
2022-07-25T04:36:34.193Z,1016.0
2022-07-25T04:51:33.763Z,1016.0
2022-07-25T05:06:33.966Z,1016.0
2022-07-25T05:15:23.960Z,1016.0
2022-07-25T05:30:23.874Z,1016.0
2022-07-25T05:45:24.051Z,1016.0
2022-07-25T06:00:24.887Z,1016.0
2022-07-25T06:15:26.866Z,1016.0
2022-07-25T06:30:24.068Z,1015.5
2022-07-25T06:45:25.371Z,1015.0
2022-07-25T07:00:24.172Z,1015.0
2022-07-25T07:15:24.066Z,1015.0
2022-07-25T07:30:30.598Z,1015.0
2022-07-25T07:45:24.171Z,1015.0
2022-07-25T08:00:26.773Z,1015.0
2022-07-25T08:15:24.283Z,1015.0
2022-07-25T08:30:24.409Z,1015.0
2022-07-25T08:45:24.297Z,1015.0
2022-07-25T09:00:24.440Z,1015.0
2022-07-25T09:15:24.498Z,1015.0
2022-07-25T09:30:24.242Z,1015.0
2022-07-25T09:45:33.284Z,1014.3
2022-07-25T10:00:33.639Z,1014.0
2022-07-25T10:15:23.361Z,1014.0
2022-07-25T10:30:23.243Z,1014.0
2022-07-25T10:45:23.485Z,1014.0
2022-07-25T11:00:23.478Z,1014.0
2022-07-25T11:15:23.525Z,1014.0
2022-07-25T11:30:23.425Z,1013.7
2022-07-25T11:45:23.480Z,1013.0
2022-07-25T12:00:23.604Z,1013.0
2022-07-25T12:15:23.728Z,1013.0
2022-07-25T12:30:23.872Z,1013.0
2022-07-25T12:45:23.359Z,1013.0
2022-07-25T13:00:23.646Z,1013.0
2022-07-25T13:15:23.630Z,1013.0
2022-07-25T13:30:23.961Z,1013.0
2022-07-25T13:45:23.766Z,1013.0
2022-07-25T14:00:24.249Z,1013.0
2022-07-25T14:15:24.017Z,1013.0
2022-07-25T14:30:23.745Z,1013.0
2022-07-25T14:45:23.949Z,1013.0
2022-07-25T15:00:29.180Z,1013.0
2022-07-25T15:15:23.838Z,1013.0
2022-07-25T15:30:29.067Z,1013.0
2022-07-25T15:45:32.997Z,1012.0
2022-07-25T16:00:27.547Z,1012.0
2022-07-25T16:15:23.754Z,1012.3
2022-07-25T16:30:23.736Z,1013.0
2022-07-25T16:45:23.718Z,1013.0
2022-07-25T17:00:23.573Z,1013.0
2022-07-25T17:15:23.806Z,1013.0
2022-07-25T17:30:23.558Z,1013.0
2022-07-25T17:45:23.570Z,1013.0
2022-07-25T18:00:23.864Z,1013.0
2022-07-25T18:15:23.880Z,1013.3
2022-07-25T18:30:29.019Z,1014.0
2022-07-25T18:45:24.462Z,1014.0
2022-07-25T19:00:23.893Z,1015.0
2022-07-25T19:15:23.993Z,1015.0
2022-07-25T19:30:23.853Z,1015.0
2022-07-25T19:45:23.804Z,1015.0
2022-07-25T20:00:24.217Z,1016.0
2022-07-25T20:15:23.905Z,1016.0
2022-07-25T20:30:23.947Z,1016.0
2022-07-25T20:45:23.886Z,1016.0
2022-07-25T21:00:24.312Z,1016.0
2022-07-25T21:15:24.023Z,1016.0
2022-07-25T21:30:24.011Z,1017.0
2022-07-25T21:45:24.148Z,1017.0
2022-07-25T22:01:02.600Z,1017.0
2022-07-25T22:15:23.090Z,1017.0
2022-07-25T22:30:23.178Z,1017.0
2022-07-25T22:45:22.999Z,1017.0
2022-07-25T23:00:23.096Z,1017.0
2022-07-25T23:15:23.085Z,1017.7
2022-07-25T23:30:23.196Z,1018.0
2022-07-25T23:45:25.438Z,1018.0
